sensor_id;sensor_type;location;lat;lon;timestamp;pressure;altitude;pressure_sealevel;temperature
80680;BMP280;70043;51.982;-8.514;2024-02-26T00:01:31;98808.38;;;6.53
80680;BMP280;70043;51.982;-8.514;2024-02-26T00:03:59;98803.31;;;6.53
80680;BMP280;70043;51.982;-8.514;2024-02-26T00:06:27;98815.38;;;6.51
80680;BMP280;70043;51.982;-8.514;2024-02-26T00:08:55;98815.75;;;6.48
80680;BMP280;70043;51.982;-8.514;2024-02-26T00:11:23;98820.63;;;6.50
80680;BMP280;70043;51.982;-8.514;2024-02-26T00:13:50;98827.50;;;6.56
80680;BMP280;70043;51.982;-8.514;2024-02-26T00:16:17;98835.66;;;6.51
80680;BMP280;70043;51.982;-8.514;2024-02-26T00:18:44;98847.78;;;6.56
80680;BMP280;70043;51.982;-8.514;2024-02-26T00:21:11;98862.22;;;6.55
80680;BMP280;70043;51.982;-8.514;2024-02-26T00:23:38;98855.19;;;6.57
80680;BMP280;70043;51.982;-8.514;2024-02-26T00:26:05;98854.34;;;6.50
80680;BMP280;70043;51.982;-8.514;2024-02-26T00:28:34;98856.31;;;6.48
80680;BMP280;70043;51.982;-8.514;2024-02-26T00:31:01;98860.34;;;6.43
80680;BMP280;70043;51.982;-8.514;2024-02-26T00:33:28;98866.00;;;6.45
80680;BMP280;70043;51.982;-8.514;2024-02-26T00:35:55;98871.03;;;6.38
80680;BMP280;70043;51.982;-8.514;2024-02-26T00:38:22;98869.69;;;6.42
80680;BMP280;70043;51.982;-8.514;2024-02-26T00:40:49;98885.00;;;6.34
80680;BMP280;70043;51.982;-8.514;2024-02-26T00:43:16;98883.44;;;6.33
80680;BMP280;70043;51.982;-8.514;2024-02-26T00:45:45;98901.91;;;6.27
80680;BMP280;70043;51.982;-8.514;2024-02-26T00:48:12;98904.63;;;6.25
80680;BMP280;70043;51.982;-8.514;2024-02-26T00:50:39;98910.34;;;6.13
80680;BMP280;70043;51.982;-8.514;2024-02-26T00:53:07;98915.16;;;6.08
80680;BMP280;70043;51.982;-8.514;2024-02-26T00:55:34;98931.09;;;6.02
80680;BMP280;70043;51.982;-8.514;2024-02-26T00:58:01;98931.09;;;6.02
80680;BMP280;70043;51.982;-8.514;2024-02-26T01:00:28;98940.94;;;5.97
80680;BMP280;70043;51.982;-8.514;2024-02-26T01:02:56;98930.81;;;5.97
80680;BMP280;70043;51.982;-8.514;2024-02-26T01:05:25;98954.31;;;5.90
80680;BMP280;70043;51.982;-8.514;2024-02-26T01:07:52;98954.56;;;5.96
80680;BMP280;70043;51.982;-8.514;2024-02-26T01:10:19;98962.94;;;5.96
80680;BMP280;70043;51.982;-8.514;2024-02-26T01:12:46;98960.41;;;5.96
80680;BMP280;70043;51.982;-8.514;2024-02-26T01:15:13;98957.09;;;5.96
80680;BMP280;70043;51.982;-8.514;2024-02-26T01:17:40;98953.47;;;6.05
80680;BMP280;70043;51.982;-8.514;2024-02-26T01:20:09;98955.84;;;6.06
80680;BMP280;70043;51.982;-8.514;2024-02-26T01:22:36;98969.81;;;6.02
80680;BMP280;70043;51.982;-8.514;2024-02-26T01:25:04;98978.66;;;5.91
80680;BMP280;70043;51.982;-8.514;2024-02-26T01:27:31;98978.06;;;5.89
80680;BMP280;70043;51.982;-8.514;2024-02-26T01:29:58;98981.91;;;5.85
80680;BMP280;70043;51.982;-8.514;2024-02-26T01:32:25;98989.25;;;5.80
80680;BMP280;70043;51.982;-8.514;2024-02-26T01:34:52;98997.50;;;5.74
80680;BMP280;70043;51.982;-8.514;2024-02-26T01:37:21;99008.25;;;5.76
80680;BMP280;70043;51.982;-8.514;2024-02-26T01:39:48;99015.06;;;5.76
80680;BMP280;70043;51.982;-8.514;2024-02-26T01:42:15;99027.88;;;5.74
80680;BMP280;70043;51.982;-8.514;2024-02-26T01:44:42;99024.66;;;5.66
80680;BMP280;70043;51.982;-8.514;2024-02-26T01:47:11;99027.66;;;5.69
80680;BMP280;70043;51.982;-8.514;2024-02-26T01:49:40;99041.59;;;5.65
80680;BMP280;70043;51.982;-8.514;2024-02-26T01:52:08;99046.16;;;5.70
80680;BMP280;70043;51.982;-8.514;2024-02-26T01:54:39;99054.53;;;5.70
80680;BMP280;70043;51.982;-8.514;2024-02-26T01:57:07;99060.63;;;5.76
80680;BMP280;70043;51.982;-8.514;2024-02-26T01:59:35;99072.63;;;5.82
80680;BMP280;70043;51.982;-8.514;2024-02-26T02:02:06;99088.41;;;5.84
80680;BMP280;70043;51.982;-8.514;2024-02-26T02:04:34;99103.44;;;5.85
80680;BMP280;70043;51.982;-8.514;2024-02-26T02:07:02;99114.94;;;5.88
80680;BMP280;70043;51.982;-8.514;2024-02-26T02:09:29;99125.78;;;5.82
80680;BMP280;70043;51.982;-8.514;2024-02-26T02:11:59;99136.41;;;5.77
80680;BMP280;70043;51.982;-8.514;2024-02-26T02:14:27;99132.25;;;5.84
80680;BMP280;70043;51.982;-8.514;2024-02-26T02:16:54;99142.09;;;5.79
80680;BMP280;70043;51.982;-8.514;2024-02-26T02:19:21;99148.75;;;5.80
80680;BMP280;70043;51.982;-8.514;2024-02-26T02:21:49;99154.13;;;5.77
80680;BMP280;70043;51.982;-8.514;2024-02-26T02:24:16;99151.75;;;5.76
80680;BMP280;70043;51.982;-8.514;2024-02-26T02:26:43;99158.75;;;5.74
80680;BMP280;70043;51.982;-8.514;2024-02-26T02:29:11;99160.13;;;5.76
80680;BMP280;70043;51.982;-8.514;2024-02-26T02:31:39;99155.72;;;5.78
80680;BMP280;70043;51.982;-8.514;2024-02-26T02:34:06;99161.72;;;5.77
80680;BMP280;70043;51.982;-8.514;2024-02-26T02:36:33;99161.09;;;5.75
80680;BMP280;70043;51.982;-8.514;2024-02-26T02:39:02;99164.97;;;5.71
80680;BMP280;70043;51.982;-8.514;2024-02-26T02:41:29;99158.75;;;5.74
80680;BMP280;70043;51.982;-8.514;2024-02-26T02:43:56;99171.28;;;5.67
80680;BMP280;70043;51.982;-8.514;2024-02-26T02:46:23;99170.72;;;5.57
80680;BMP280;70043;51.982;-8.514;2024-02-26T02:48:50;99178.25;;;5.42
80680;BMP280;70043;51.982;-8.514;2024-02-26T02:51:17;99191.41;;;5.38
80680;BMP280;70043;51.982;-8.514;2024-02-26T02:53:44;99201.88;;;5.35
80680;BMP280;70043;51.982;-8.514;2024-02-26T02:56:13;99207.47;;;5.22
80680;BMP280;70043;51.982;-8.514;2024-02-26T02:58:40;99212.88;;;5.11
80680;BMP280;70043;51.982;-8.514;2024-02-26T03:01:07;99207.66;;;5.13
80680;BMP280;70043;51.982;-8.514;2024-02-26T03:03:34;99207.41;;;5.07
80680;BMP280;70043;51.982;-8.514;2024-02-26T03:06:02;99220.63;;;5.09
80680;BMP280;70043;51.982;-8.514;2024-02-26T03:08:29;99219.66;;;5.10
80680;BMP280;70043;51.982;-8.514;2024-02-26T03:10:55;99224.09;;;5.17
80680;BMP280;70043;51.982;-8.514;2024-02-26T03:13:26;99219.84;;;5.17
80680;BMP280;70043;51.982;-8.514;2024-02-26T03:15:53;99217.47;;;5.16
80680;BMP280;70043;51.982;-8.514;2024-02-26T03:18:20;99225.91;;;5.08
80680;BMP280;70043;51.982;-8.514;2024-02-26T03:20:47;99235.53;;;5.04
80680;BMP280;70043;51.982;-8.514;2024-02-26T03:23:14;99239.78;;;5.04
80680;BMP280;70043;51.982;-8.514;2024-02-26T03:29:05;99263.25;;;4.90
80680;BMP280;70043;51.982;-8.514;2024-02-26T03:31:32;99265.94;;;4.88
80680;BMP280;70043;51.982;-8.514;2024-02-26T03:33:59;99265.59;;;4.83
80680;BMP280;70043;51.982;-8.514;2024-02-26T03:36:26;99267.81;;;4.86
80680;BMP280;70043;51.982;-8.514;2024-02-26T03:38:53;99268.91;;;4.84
80680;BMP280;70043;51.982;-8.514;2024-02-26T03:41:20;99282.53;;;4.91
80680;BMP280;70043;51.982;-8.514;2024-02-26T03:43:47;99289.31;;;4.90
80680;BMP280;70043;51.982;-8.514;2024-02-26T03:46:15;99308.72;;;4.82
80680;BMP280;70043;51.982;-8.514;2024-02-26T03:48:42;99313.97;;;4.80
80680;BMP280;70043;51.982;-8.514;2024-02-26T03:51:09;99319.97;;;4.79
80680;BMP280;70043;51.982;-8.514;2024-02-26T03:53:37;99330.88;;;4.80
80680;BMP280;70043;51.982;-8.514;2024-02-26T03:56:04;99332.13;;;4.76
80680;BMP280;70043;51.982;-8.514;2024-02-26T03:58:32;99341.56;;;4.74
80680;BMP280;70043;51.982;-8.514;2024-02-26T04:00:59;99346.03;;;4.80
80680;BMP280;70043;51.982;-8.514;2024-02-26T04:03:28;99352.66;;;4.81
80680;BMP280;70043;51.982;-8.514;2024-02-26T04:05:55;99359.13;;;4.83
80680;BMP280;70043;51.982;-8.514;2024-02-26T04:08:22;99361.50;;;4.85
80680;BMP280;70043;51.982;-8.514;2024-02-26T04:10:49;99376.97;;;4.82
80680;BMP280;70043;51.982;-8.514;2024-02-26T04:13:17;99373.34;;;4.84
80680;BMP280;70043;51.982;-8.514;2024-02-26T04:15:44;99377.94;;;4.89
80680;BMP280;70043;51.982;-8.514;2024-02-26T04:18:11;99386.78;;;4.85
80680;BMP280;70043;51.982;-8.514;2024-02-26T04:20:41;99402.09;;;4.83
80680;BMP280;70043;51.982;-8.514;2024-02-26T04:23:08;99405.28;;;4.85
80680;BMP280;70043;51.982;-8.514;2024-02-26T04:25:35;99410.19;;;4.87
80680;BMP280;70043;51.982;-8.514;2024-02-26T04:28:02;99421.22;;;4.86
80680;BMP280;70043;51.982;-8.514;2024-02-26T04:30:29;99425.16;;;4.96
80680;BMP280;70043;51.982;-8.514;2024-02-26T04:32:56;99438.75;;;4.95
80680;BMP280;70043;51.982;-8.514;2024-02-26T04:35:23;99439.84;;;4.93
80680;BMP280;70043;51.982;-8.514;2024-02-26T04:37:52;99457.41;;;4.86
80680;BMP280;70043;51.982;-8.514;2024-02-26T04:40:19;99452.97;;;4.80
80680;BMP280;70043;51.982;-8.514;2024-02-26T04:42:46;99453.78;;;4.81
80680;BMP280;70043;51.982;-8.514;2024-02-26T04:45:13;99460.72;;;4.79
80680;BMP280;70043;51.982;-8.514;2024-02-26T04:47:40;99473.22;;;4.80
80680;BMP280;70043;51.982;-8.514;2024-02-26T04:50:07;99468.16;;;4.80
80680;BMP280;70043;51.982;-8.514;2024-02-26T04:52:34;99470.69;;;4.80
80680;BMP280;70043;51.982;-8.514;2024-02-26T04:55:04;99479.84;;;4.81
80680;BMP280;70043;51.982;-8.514;2024-02-26T04:57:31;99477.34;;;4.89
80680;BMP280;70043;51.982;-8.514;2024-02-26T04:59:57;99485.22;;;4.86
80680;BMP280;70043;51.982;-8.514;2024-02-26T05:02:24;99476.06;;;4.85
80680;BMP280;70043;51.982;-8.514;2024-02-26T05:04:51;99482.38;;;4.81
80680;BMP280;70043;51.982;-8.514;2024-02-26T05:07:18;99489.31;;;4.79
80680;BMP280;70043;51.982;-8.514;2024-02-26T05:09:46;99492.63;;;4.80
80680;BMP280;70043;51.982;-8.514;2024-02-26T05:12:16;99494.38;;;4.71
80680;BMP280;70043;51.982;-8.514;2024-02-26T05:14:43;99503.84;;;4.69
80680;BMP280;70043;51.982;-8.514;2024-02-26T05:17:10;99516.13;;;4.64
80680;BMP280;70043;51.982;-8.514;2024-02-26T05:19:37;99518.66;;;4.64
80680;BMP280;70043;51.982;-8.514;2024-02-26T05:22:04;99528.81;;;4.72
80680;BMP280;70043;51.982;-8.514;2024-02-26T05:24:31;99541.75;;;4.77
80680;BMP280;70043;51.982;-8.514;2024-02-26T05:27:00;99546.94;;;4.76
80680;BMP280;70043;51.982;-8.514;2024-02-26T05:29:29;99562.94;;;4.84
80680;BMP280;70043;51.982;-8.514;2024-02-26T05:31:56;99562.94;;;4.84
80680;BMP280;70043;51.982;-8.514;2024-02-26T05:34:23;99570.25;;;4.87
80680;BMP280;70043;51.982;-8.514;2024-02-26T05:36:50;99578.91;;;4.93
80680;BMP280;70043;51.982;-8.514;2024-02-26T05:39:17;99582.38;;;4.92
80680;BMP280;70043;51.982;-8.514;2024-02-26T05:41:44;99585.69;;;4.92
80680;BMP280;70043;51.982;-8.514;2024-02-26T05:44:12;99594.88;;;4.93
80680;BMP280;70043;51.982;-8.514;2024-02-26T05:46:41;99604.84;;;4.95
80680;BMP280;70043;51.982;-8.514;2024-02-26T05:49:08;99614.81;;;4.88
80680;BMP280;70043;51.982;-8.514;2024-02-26T05:51:35;99620.81;;;4.87
80680;BMP280;70043;51.982;-8.514;2024-02-26T05:54:02;99619.22;;;4.94
80680;BMP280;70043;51.982;-8.514;2024-02-26T05:56:29;99628.56;;;5.02
80680;BMP280;70043;51.982;-8.514;2024-02-26T05:58:56;99629.03;;;4.97
80680;BMP280;70043;51.982;-8.514;2024-02-26T06:01:23;99633.31;;;4.89
80680;BMP280;70043;51.982;-8.514;2024-02-26T06:03:52;99633.16;;;4.90
80680;BMP280;70043;51.982;-8.514;2024-02-26T06:06:19;99639.00;;;4.91
80680;BMP280;70043;51.982;-8.514;2024-02-26T06:08:48;99647.81;;;4.95
80680;BMP280;70043;51.982;-8.514;2024-02-26T06:11:15;99644.66;;;4.93
80680;BMP280;70043;51.982;-8.514;2024-02-26T06:13:42;99653.38;;;4.98
80680;BMP280;70043;51.982;-8.514;2024-02-26T06:16:09;99657.28;;;4.93
80680;BMP280;70043;51.982;-8.514;2024-02-26T06:18:36;99643.25;;;4.90
80680;BMP280;70043;51.982;-8.514;2024-02-26T06:21:09;99652.72;;;4.88
80680;BMP280;70043;51.982;-8.514;2024-02-26T06:23:36;99659.38;;;4.89
80680;BMP280;70043;51.982;-8.514;2024-02-26T06:26:03;99660.31;;;4.88
80680;BMP280;70043;51.982;-8.514;2024-02-26T06:28:30;99672.31;;;4.86
80680;BMP280;70043;51.982;-8.514;2024-02-26T06:30:59;99678.03;;;4.96
80680;BMP280;70043;51.982;-8.514;2024-02-26T06:33:26;99680.84;;;4.93
80680;BMP280;70043;51.982;-8.514;2024-02-26T06:35:53;99678.31;;;4.93
80680;BMP280;70043;51.982;-8.514;2024-02-26T06:38:21;99693.47;;;4.93
80680;BMP280;70043;51.982;-8.514;2024-02-26T06:40:48;99698.25;;;4.96
80680;BMP280;70043;51.982;-8.514;2024-02-26T06:43:15;99700.50;;;4.99
80680;BMP280;70043;51.982;-8.514;2024-02-26T06:45:42;99706.50;;;4.98
80680;BMP280;70043;51.982;-8.514;2024-02-26T06:48:09;99712.16;;;5.00
80680;BMP280;70043;51.982;-8.514;2024-02-26T06:50:36;99712.53;;;5.05
80680;BMP280;70043;51.982;-8.514;2024-02-26T06:53:03;99709.88;;;5.07
80680;BMP280;70043;51.982;-8.514;2024-02-26T06:55:34;99720.91;;;5.06
80680;BMP280;70043;51.982;-8.514;2024-02-26T06:58:01;99720.78;;;5.07
80680;BMP280;70043;51.982;-8.514;2024-02-26T07:00:28;99723.88;;;5.09
80680;BMP280;70043;51.982;-8.514;2024-02-26T07:02:55;99718.25;;;5.07
80680;BMP280;70043;51.982;-8.514;2024-02-26T07:05:22;99723.59;;;5.13
80680;BMP280;70043;51.982;-8.514;2024-02-26T07:07:49;99718.91;;;5.18
80680;BMP280;70043;51.982;-8.514;2024-02-26T07:10:16;99723.66;;;5.21
80680;BMP280;70043;51.982;-8.514;2024-02-26T07:12:44;99732.81;;;5.22
80680;BMP280;70043;51.982;-8.514;2024-02-26T07:15:11;99736.28;;;5.21
80680;BMP280;70043;51.982;-8.514;2024-02-26T07:17:38;99747.22;;;5.21
80680;BMP280;70043;51.982;-8.514;2024-02-26T07:20:08;99751.66;;;5.27
80680;BMP280;70043;51.982;-8.514;2024-02-26T07:22:35;99760.19;;;5.26
80680;BMP280;70043;51.982;-8.514;2024-02-26T07:25:03;99768.25;;;5.30
80680;BMP280;70043;51.982;-8.514;2024-02-26T07:27:30;99777.16;;;5.34
80680;BMP280;70043;51.982;-8.514;2024-02-26T07:29:58;99781.28;;;5.35
80680;BMP280;70043;51.982;-8.514;2024-02-26T07:32:26;99790.13;;;5.39
80680;BMP280;70043;51.982;-8.514;2024-02-26T07:34:53;99798.38;;;5.41
80680;BMP280;70043;51.982;-8.514;2024-02-26T07:37:19;99804.88;;;5.43
80680;BMP280;70043;51.982;-8.514;2024-02-26T07:39:46;99815.47;;;5.47
80680;BMP280;70043;51.982;-8.514;2024-02-26T07:42:13;99822.78;;;5.50
80680;BMP280;70043;51.982;-8.514;2024-02-26T07:44:40;99825.47;;;5.57
80680;BMP280;70043;51.982;-8.514;2024-02-26T07:47:10;99825.03;;;5.61
80680;BMP280;70043;51.982;-8.514;2024-02-26T07:49:37;99838.66;;;5.68
80680;BMP280;70043;51.982;-8.514;2024-02-26T07:52:04;99834.72;;;5.74
80680;BMP280;70043;51.982;-8.514;2024-02-26T07:54:31;99850.91;;;5.81
80680;BMP280;70043;51.982;-8.514;2024-02-26T07:56:58;99853.44;;;5.89
80680;BMP280;70043;51.982;-8.514;2024-02-26T07:59:25;99856.81;;;5.98
80680;BMP280;70043;51.982;-8.514;2024-02-26T08:01:52;99859.19;;;5.99
80680;BMP280;70043;51.982;-8.514;2024-02-26T08:04:20;99865.50;;;6.03
80680;BMP280;70043;51.982;-8.514;2024-02-26T08:06:48;99868.06;;;6.11
80680;BMP280;70043;51.982;-8.514;2024-02-26T08:09:15;99874.09;;;6.18
80680;BMP280;70043;51.982;-8.514;2024-02-26T08:11:42;99877.59;;;6.25
80680;BMP280;70043;51.982;-8.514;2024-02-26T08:14:09;99883.47;;;6.34
80680;BMP280;70043;51.982;-8.514;2024-02-26T08:16:36;99888.38;;;6.44
80680;BMP280;70043;51.982;-8.514;2024-02-26T08:19:03;99887.63;;;6.51
80680;BMP280;70043;51.982;-8.514;2024-02-26T08:21:31;99896.97;;;6.59
80680;BMP280;70043;51.982;-8.514;2024-02-26T08:23:58;99901.09;;;6.60
80680;BMP280;70043;51.982;-8.514;2024-02-26T08:26:25;99907.09;;;6.59
80680;BMP280;70043;51.982;-8.514;2024-02-26T08:28:52;99911.56;;;6.57
80680;BMP280;70043;51.982;-8.514;2024-02-26T08:31:21;99932.03;;;6.55
80680;BMP280;70043;51.982;-8.514;2024-02-26T08:33:49;99935.00;;;6.51
80680;BMP280;70043;51.982;-8.514;2024-02-26T08:36:16;99949.41;;;6.50
80680;BMP280;70043;51.982;-8.514;2024-02-26T08:38:44;99957.16;;;6.49
80680;BMP280;70043;51.982;-8.514;2024-02-26T08:41:11;99966.53;;;6.48
80680;BMP280;70043;51.982;-8.514;2024-02-26T08:43:38;99969.84;;;6.49
80680;BMP280;70043;51.982;-8.514;2024-02-26T08:46:08;99973.69;;;6.53
80680;BMP280;70043;51.982;-8.514;2024-02-26T08:48:36;99976.34;;;6.51
80680;BMP280;70043;51.982;-8.514;2024-02-26T08:51:05;99970.03;;;6.47
80680;BMP280;70043;51.982;-8.514;2024-02-26T08:53:33;99975.41;;;6.52
80680;BMP280;70043;51.982;-8.514;2024-02-26T08:56:01;99986.50;;;6.51
80680;BMP280;70043;51.982;-8.514;2024-02-26T08:58:28;99992.66;;;6.49
80680;BMP280;70043;51.982;-8.514;2024-02-26T09:00:55;99987.94;;;6.54
80680;BMP280;70043;51.982;-8.514;2024-02-26T09:03:22;99987.31;;;6.60
80680;BMP280;70043;51.982;-8.514;2024-02-26T09:05:50;100001.13;;;6.65
80680;BMP280;70043;51.982;-8.514;2024-02-26T09:08:16;100008.56;;;6.67
80680;BMP280;70043;51.982;-8.514;2024-02-26T09:10:43;100005.88;;;6.68
80680;BMP280;70043;51.982;-8.514;2024-02-26T09:13:12;100001.59;;;6.77
80680;BMP280;70043;51.982;-8.514;2024-02-26T09:15:39;99994.03;;;6.85
80680;BMP280;70043;51.982;-8.514;2024-02-26T09:18:06;99987.03;;;6.87
80680;BMP280;70043;51.982;-8.514;2024-02-26T09:20:33;99998.31;;;6.93
80680;BMP280;70043;51.982;-8.514;2024-02-26T09:23:00;100000.19;;;6.99
80680;BMP280;70043;51.982;-8.514;2024-02-26T09:25:28;100000.69;;;7.10
80680;BMP280;70043;51.982;-8.514;2024-02-26T09:27:55;99995.28;;;7.22
80680;BMP280;70043;51.982;-8.514;2024-02-26T09:30:23;99996.53;;;7.34
80680;BMP280;70043;51.982;-8.514;2024-02-26T09:32:50;99989.69;;;7.50
80680;BMP280;70043;51.982;-8.514;2024-02-26T09:35:17;99996.50;;;7.66
80680;BMP280;70043;51.982;-8.514;2024-02-26T09:37:44;100007.56;;;7.81
80680;BMP280;70043;51.982;-8.514;2024-02-26T09:40:11;100014.53;;;7.95
80680;BMP280;70043;51.982;-8.514;2024-02-26T09:42:43;100015.56;;;8.09
80680;BMP280;70043;51.982;-8.514;2024-02-26T09:45:18;100008.81;;;8.24
80680;BMP280;70043;51.982;-8.514;2024-02-26T09:47:48;100017.97;;;8.41
80680;BMP280;70043;51.982;-8.514;2024-02-26T09:50:17;100019.63;;;8.57
80680;BMP280;70043;51.982;-8.514;2024-02-26T09:52:48;100027.69;;;8.69
80680;BMP280;70043;51.982;-8.514;2024-02-26T09:55:15;100024.72;;;8.80
80680;BMP280;70043;51.982;-8.514;2024-02-26T09:57:45;100029.59;;;8.89
80680;BMP280;70043;51.982;-8.514;2024-02-26T10:00:17;100031.13;;;8.99
80680;BMP280;70043;51.982;-8.514;2024-02-26T10:02:47;100023.59;;;9.05
80680;BMP280;70043;51.982;-8.514;2024-02-26T10:05:16;100022.56;;;9.14
80680;BMP280;70043;51.982;-8.514;2024-02-26T10:07:44;100008.34;;;9.20
80680;BMP280;70043;51.982;-8.514;2024-02-26T10:10:12;100007.13;;;9.30
80680;BMP280;70043;51.982;-8.514;2024-02-26T10:12:40;100007.69;;;9.41
80680;BMP280;70043;51.982;-8.514;2024-02-26T10:15:08;100009.00;;;9.51
80680;BMP280;70043;51.982;-8.514;2024-02-26T10:17:35;100020.53;;;9.62
80680;BMP280;70043;51.982;-8.514;2024-02-26T10:20:16;100015.41;;;9.76
80680;BMP280;70043;51.982;-8.514;2024-02-26T10:22:44;100023.91;;;9.83
80680;BMP280;70043;51.982;-8.514;2024-02-26T10:25:11;100025.56;;;9.91
80680;BMP280;70043;51.982;-8.514;2024-02-26T10:27:40;100040.81;;;9.99
80680;BMP280;70043;51.982;-8.514;2024-02-26T10:30:16;100041.50;;;10.08
80680;BMP280;70043;51.982;-8.514;2024-02-26T10:32:44;100045.16;;;10.20
80680;BMP280;70043;51.982;-8.514;2024-02-26T10:35:12;100056.84;;;10.29
80680;BMP280;70043;51.982;-8.514;2024-02-26T10:37:41;100051.97;;;10.49
80680;BMP280;70043;51.982;-8.514;2024-02-26T10:40:10;100054.28;;;10.65
80680;BMP280;70043;51.982;-8.514;2024-02-26T10:42:37;100059.06;;;10.74
80680;BMP280;70043;51.982;-8.514;2024-02-26T10:45:05;100063.53;;;10.87
80680;BMP280;70043;51.982;-8.514;2024-02-26T10:47:32;100066.00;;;11.02
80680;BMP280;70043;51.982;-8.514;2024-02-26T10:50:01;100078.25;;;11.13
80680;BMP280;70043;51.982;-8.514;2024-02-26T10:52:31;100068.97;;;11.27
80680;BMP280;70043;51.982;-8.514;2024-02-26T10:55:02;100083.22;;;11.42
80680;BMP280;70043;51.982;-8.514;2024-02-26T10:57:32;100069.16;;;11.59
80680;BMP280;70043;51.982;-8.514;2024-02-26T11:00:01;100072.97;;;11.77
80680;BMP280;70043;51.982;-8.514;2024-02-26T11:02:32;100070.84;;;11.80
80680;BMP280;70043;51.982;-8.514;2024-02-26T11:05:02;100086.75;;;11.76
80680;BMP280;70043;51.982;-8.514;2024-02-26T11:07:30;100092.13;;;11.87
80680;BMP280;70043;51.982;-8.514;2024-02-26T11:10:00;100105.94;;;11.93
80680;BMP280;70043;51.982;-8.514;2024-02-26T11:12:28;100105.34;;;11.91
80680;BMP280;70043;51.982;-8.514;2024-02-26T11:14:56;100110.13;;;12.00
80680;BMP280;70043;51.982;-8.514;2024-02-26T11:17:25;100113.25;;;12.02
80680;BMP280;70043;51.982;-8.514;2024-02-26T11:19:55;100117.78;;;12.00
80680;BMP280;70043;51.982;-8.514;2024-02-26T11:22:23;100131.03;;;12.17
80680;BMP280;70043;51.982;-8.514;2024-02-26T11:24:52;100132.59;;;12.11
80680;BMP280;70043;51.982;-8.514;2024-02-26T11:27:24;100139.34;;;12.26
80680;BMP280;70043;51.982;-8.514;2024-02-26T11:29:53;100149.06;;;12.50
80680;BMP280;70043;51.982;-8.514;2024-02-26T11:32:23;100148.56;;;12.68
80680;BMP280;70043;51.982;-8.514;2024-02-26T11:34:51;100140.47;;;12.77
80680;BMP280;70043;51.982;-8.514;2024-02-26T11:37:19;100142.44;;;12.88
80680;BMP280;70043;51.982;-8.514;2024-02-26T11:39:46;100126.31;;;13.07
80680;BMP280;70043;51.982;-8.514;2024-02-26T11:42:14;100134.38;;;12.98
80680;BMP280;70043;51.982;-8.514;2024-02-26T11:44:43;100140.09;;;12.93
80680;BMP280;70043;51.982;-8.514;2024-02-26T11:47:11;100139.31;;;13.13
80680;BMP280;70043;51.982;-8.514;2024-02-26T11:49:38;100134.97;;;13.39
80680;BMP280;70043;51.982;-8.514;2024-02-26T11:52:08;100133.56;;;13.37
80680;BMP280;70043;51.982;-8.514;2024-02-26T11:54:45;100143.06;;;13.43
80680;BMP280;70043;51.982;-8.514;2024-02-26T11:57:23;100139.13;;;13.40
80680;BMP280;70043;51.982;-8.514;2024-02-26T11:59:52;100144.84;;;13.49
80680;BMP280;70043;51.982;-8.514;2024-02-26T12:02:41;100154.88;;;13.57
80680;BMP280;70043;51.982;-8.514;2024-02-26T12:05:11;100160.59;;;13.59
80680;BMP280;70043;51.982;-8.514;2024-02-26T12:07:40;100163.56;;;13.56
80680;BMP280;70043;51.982;-8.514;2024-02-26T12:10:32;100158.22;;;13.51
80680;BMP280;70043;51.982;-8.514;2024-02-26T12:13:05;100162.34;;;13.65
80680;BMP280;70043;51.982;-8.514;2024-02-26T12:15:37;100172.63;;;13.65
80680;BMP280;70043;51.982;-8.514;2024-02-26T12:18:06;100155.25;;;13.67
80680;BMP280;70043;51.982;-8.514;2024-02-26T12:20:35;100160.41;;;13.67
80680;BMP280;70043;51.982;-8.514;2024-02-26T12:23:03;100161.34;;;13.79
80680;BMP280;70043;51.982;-8.514;2024-02-26T12:25:31;100157.00;;;13.86
80680;BMP280;70043;51.982;-8.514;2024-02-26T12:27:58;100161.31;;;13.92
80680;BMP280;70043;51.982;-8.514;2024-02-26T12:30:26;100160.13;;;13.95
80680;BMP280;70043;51.982;-8.514;2024-02-26T12:32:56;100151.59;;;14.01
80680;BMP280;70043;51.982;-8.514;2024-02-26T12:35:25;100156.56;;;13.96
80680;BMP280;70043;51.982;-8.514;2024-02-26T12:37:52;100149.44;;;14.04
80680;BMP280;70043;51.982;-8.514;2024-02-26T12:40:20;100154.28;;;14.19
80680;BMP280;70043;51.982;-8.514;2024-02-26T12:42:47;100130.78;;;14.16
80680;BMP280;70043;51.982;-8.514;2024-02-26T12:45:15;100137.03;;;14.33
80680;BMP280;70043;51.982;-8.514;2024-02-26T12:47:42;100135.78;;;14.42
80680;BMP280;70043;51.982;-8.514;2024-02-26T12:50:12;100140.94;;;14.42
80680;BMP280;70043;51.982;-8.514;2024-02-26T12:52:40;100140.94;;;14.42
80680;BMP280;70043;51.982;-8.514;2024-02-26T12:55:08;100149.19;;;14.50
80680;BMP280;70043;51.982;-8.514;2024-02-26T12:57:38;100155.69;;;14.53
80680;BMP280;70043;51.982;-8.514;2024-02-26T13:00:06;100168.22;;;14.36
80680;BMP280;70043;51.982;-8.514;2024-02-26T13:02:35;100167.09;;;14.26
80680;BMP280;70043;51.982;-8.514;2024-02-26T13:05:03;100160.66;;;14.48
80680;BMP280;70043;51.982;-8.514;2024-02-26T13:07:32;100161.41;;;14.55
80680;BMP280;70043;51.982;-8.514;2024-02-26T13:09:59;100150.75;;;14.58
80680;BMP280;70043;51.982;-8.514;2024-02-26T13:12:27;100155.13;;;14.51
80680;BMP280;70043;51.982;-8.514;2024-02-26T13:15:00;100137.63;;;14.35
80680;BMP280;70043;51.982;-8.514;2024-02-26T13:17:27;100132.31;;;14.30
80680;BMP280;70043;51.982;-8.514;2024-02-26T13:19:54;100126.34;;;14.36
80680;BMP280;70043;51.982;-8.514;2024-02-26T13:22:21;100130.56;;;14.55
80680;BMP280;70043;51.982;-8.514;2024-02-26T13:24:59;100132.88;;;14.70
80680;BMP280;70043;51.982;-8.514;2024-02-26T13:27:28;100147.75;;;14.61
80680;BMP280;70043;51.982;-8.514;2024-02-26T13:30:03;100160.22;;;14.57
80680;BMP280;70043;51.982;-8.514;2024-02-26T13:32:32;100162.25;;;14.49
80680;BMP280;70043;51.982;-8.514;2024-02-26T13:35:07;100165.41;;;14.51
80680;BMP280;70043;51.982;-8.514;2024-02-26T13:37:35;100159.09;;;14.47
80680;BMP280;70043;51.982;-8.514;2024-02-26T13:40:06;100171.59;;;14.37
80680;BMP280;70043;51.982;-8.514;2024-02-26T13:42:34;100160.91;;;14.40
80680;BMP280;70043;51.982;-8.514;2024-02-26T13:45:01;100158.69;;;14.50
80680;BMP280;70043;51.982;-8.514;2024-02-26T13:47:28;100167.28;;;14.62
80680;BMP280;70043;51.982;-8.514;2024-02-26T13:49:55;100168.22;;;14.74
80680;BMP280;70043;51.982;-8.514;2024-02-26T13:52:22;100159.72;;;14.74
80680;BMP280;70043;51.982;-8.514;2024-02-26T13:54:49;100166.00;;;14.78
80680;BMP280;70043;51.982;-8.514;2024-02-26T13:57:18;100175.50;;;14.77
80680;BMP280;70043;51.982;-8.514;2024-02-26T13:59:45;100176.75;;;14.68
80680;BMP280;70043;51.982;-8.514;2024-02-26T14:02:13;100179.25;;;14.50
80680;BMP280;70043;51.982;-8.514;2024-02-26T14:04:40;100170.22;;;14.41
80680;BMP280;70043;51.982;-8.514;2024-02-26T14:07:07;100170.00;;;14.42
80680;BMP280;70043;51.982;-8.514;2024-02-26T14:09:35;100166.38;;;14.50